createdAt,value
2019-03-23T00:00:41.232Z,70.60
2019-03-23T00:03:08.714Z,68.67
2019-03-23T00:05:36.032Z,71.10
2019-03-23T00:08:03.459Z,67.70
2019-03-23T00:10:31.875Z,73.00
2019-03-23T00:12:59.350Z,70.47
2019-03-23T00:15:26.676Z,71.80
2019-03-23T00:17:53.989Z,69.20
2019-03-23T00:20:21.202Z,71.60
2019-03-23T00:22:48.422Z,70.20
2019-03-23T00:25:15.711Z,69.23
2019-03-23T00:27:42.926Z,70.87
2019-03-23T00:30:10.462Z,73.30
2019-03-23T00:32:37.775Z,71.90
2019-03-23T00:35:06.174Z,72.07
2019-03-23T00:37:33.553Z,66.07
2019-03-23T00:40:00.872Z,66.83
2019-03-23T00:42:28.185Z,69.70
2019-03-23T00:44:55.412Z,69.37
2019-03-23T00:47:22.626Z,66.43
2019-03-23T00:49:50.121Z,67.03
2019-03-23T00:52:17.340Z,73.00
2019-03-23T00:54:44.564Z,86.93
2019-03-23T00:57:11.875Z,64.17
2019-03-23T00:59:39.182Z,67.17
2019-03-23T01:02:06.389Z,62.20
2019-03-23T01:04:33.593Z,59.00
2019-03-23T01:07:00.929Z,61.93
2019-03-23T01:09:28.137Z,61.17
2019-03-23T01:11:55.502Z,58.00
2019-03-23T01:14:22.937Z,64.27
2019-03-23T01:16:50.463Z,60.87
2019-03-23T01:19:17.668Z,66.60
2019-03-23T01:21:45.002Z,61.90
2019-03-23T01:24:12.196Z,65.20
2019-03-23T01:26:39.397Z,65.47
2019-03-23T01:29:06.705Z,62.50
2019-03-23T01:31:35.101Z,60.87
2019-03-23T01:34:02.438Z,67.33
2019-03-23T01:36:29.624Z,66.43
2019-03-23T01:38:56.828Z,64.53
2019-03-23T01:41:24.736Z,65.83
2019-03-23T01:43:51.963Z,64.20
2019-03-23T01:46:19.289Z,59.97
2019-03-23T01:48:46.518Z,58.67
2019-03-23T01:51:13.724Z,57.13
2019-03-23T01:53:40.938Z,55.67
2019-03-23T01:56:08.151Z,58.23
2019-03-23T01:58:35.455Z,55.20
2019-03-23T02:01:02.766Z,58.00
2019-03-23T02:03:30.087Z,55.60
2019-03-23T02:05:57.387Z,54.87
2019-03-23T02:08:24.589Z,60.80
2019-03-23T02:10:51.897Z,57.67
2019-03-23T02:13:19.267Z,58.27
2019-03-23T02:15:46.451Z,55.40
2019-03-23T02:18:13.750Z,53.70
2019-03-23T02:20:40.965Z,53.07
2019-03-23T02:23:08.165Z,61.03
2019-03-23T02:25:35.474Z,54.30
2019-03-23T02:28:02.869Z,60.50
2019-03-23T02:30:30.129Z,56.07
2019-03-23T02:32:57.339Z,53.40
2019-03-23T02:35:24.627Z,54.27
2019-03-23T02:37:51.843Z,54.60
2019-03-23T02:40:19.297Z,56.00
2019-03-23T02:42:46.493Z,67.03
2019-03-23T02:45:14.004Z,56.53
2019-03-23T02:47:41.186Z,42.23
2019-03-23T02:50:25.154Z,49.00
2019-03-23T02:52:46.635Z,54.50
2019-03-23T02:55:14.206Z,49.50
2019-03-23T02:57:41.429Z,48.10
2019-03-23T03:00:09.263Z,51.17
2019-03-23T03:02:36.665Z,50.10
2019-03-23T03:05:04.744Z,45.73
2019-03-23T03:07:42.087Z,48.90
2019-03-23T03:10:01.160Z,49.20
2019-03-23T03:12:28.352Z,50.47
2019-03-23T03:14:55.595Z,51.07
2019-03-23T03:17:22.778Z,44.73
2019-03-23T03:19:49.980Z,51.50
2019-03-23T03:22:17.539Z,49.43
2019-03-23T03:24:44.842Z,48.50
2019-03-23T03:27:12.037Z,48.30
2019-03-23T03:29:39.286Z,47.20
2019-03-23T03:32:06.483Z,48.07
2019-03-23T03:34:33.694Z,47.53
2019-03-23T03:37:01.031Z,49.63
2019-03-23T03:39:28.227Z,49.57
2019-03-23T03:41:55.538Z,50.07
2019-03-23T03:44:22.781Z,50.97
2019-03-23T03:46:50.105Z,49.10
2019-03-23T03:49:17.291Z,49.27
2019-03-23T03:51:44.518Z,45.50
2019-03-23T03:54:11.800Z,47.70
2019-03-23T03:56:39.109Z,46.20
2019-03-23T03:59:06.501Z,41.03
2019-03-23T04:01:33.682Z,38.97
2019-03-23T04:04:00.884Z,46.10
2019-03-23T04:06:28.676Z,39.33
2019-03-23T04:08:55.872Z,47.13
2019-03-23T04:11:23.083Z,49.10
2019-03-23T04:13:50.432Z,49.93
2019-03-23T04:16:17.703Z,48.27
2019-03-23T04:18:45.069Z,51.60
2019-03-23T04:21:12.286Z,47.57
2019-03-23T04:23:39.719Z,50.73
2019-03-23T04:26:07.081Z,50.40
2019-03-23T04:28:34.414Z,51.50
2019-03-23T04:31:01.709Z,51.93
2019-03-23T04:33:29.018Z,53.13
2019-03-23T04:35:56.227Z,54.77
2019-03-23T04:38:23.477Z,50.40
2019-03-23T04:40:50.645Z,55.50
2019-03-23T04:43:17.893Z,58.40
2019-03-23T04:45:45.086Z,56.77
2019-03-23T04:48:12.397Z,57.10
2019-03-23T04:50:39.724Z,52.50
2019-03-23T04:53:06.914Z,51.80
2019-03-23T04:55:34.274Z,55.70
2019-03-23T04:58:01.565Z,54.53
2019-03-23T05:00:28.765Z,54.80
2019-03-23T05:02:56.096Z,54.83
2019-03-23T05:05:23.384Z,51.13
2019-03-23T05:07:50.580Z,47.33
2019-03-23T05:10:17.986Z,49.60
2019-03-23T05:12:45.165Z,50.90
2019-03-23T05:15:12.577Z,52.30
2019-03-23T05:17:39.798Z,50.80
2019-03-23T05:20:07.114Z,51.23
2019-03-23T05:22:34.452Z,49.20
2019-03-23T05:25:01.781Z,43.57
2019-03-23T05:27:28.981Z,46.97
2019-03-23T05:29:56.221Z,47.13
2019-03-23T05:32:23.405Z,47.00
2019-03-23T05:34:50.610Z,48.70
2019-03-23T05:37:18.823Z,48.40
2019-03-23T05:39:46.023Z,47.40
2019-03-23T05:42:13.247Z,51.70
2019-03-23T05:44:40.482Z,47.13
2019-03-23T05:47:07.688Z,49.37
2019-03-23T05:49:34.889Z,52.43
2019-03-23T05:52:02.186Z,53.30
2019-03-23T05:54:29.710Z,48.77
2019-03-23T05:56:57.014Z,52.53
2019-03-23T05:59:24.301Z,52.27
2019-03-23T06:01:51.595Z,50.53
2019-03-23T06:04:18.785Z,50.83
2019-03-23T06:06:45.988Z,48.47
2019-03-23T06:09:13.290Z,45.43
2019-03-23T06:11:40.489Z,51.20
2019-03-23T06:14:07.683Z,44.67
2019-03-23T06:16:34.871Z,45.60
2019-03-23T06:19:02.106Z,44.07
2019-03-23T06:21:29.282Z,45.47
2019-03-23T06:23:56.477Z,45.83
2019-03-23T06:26:23.712Z,46.70
2019-03-23T06:28:50.905Z,46.17
2019-03-23T06:31:18.194Z,44.40
2019-03-23T06:33:45.417Z,47.47
2019-03-23T06:36:12.718Z,47.97
2019-03-23T06:38:39.907Z,45.07
2019-03-23T06:41:07.145Z,47.43
2019-03-23T06:43:34.385Z,45.23
2019-03-23T06:46:01.602Z,41.37
2019-03-23T06:48:28.837Z,45.63
2019-03-23T06:50:56.024Z,47.30
2019-03-23T06:53:23.248Z,48.53
2019-03-23T06:55:50.460Z,45.40
2019-03-23T06:58:17.761Z,45.67
2019-03-23T07:00:44.984Z,48.20
2019-03-23T07:03:12.198Z,48.23
2019-03-23T07:05:39.393Z,46.83
2019-03-23T07:08:06.590Z,47.37
2019-03-23T07:10:33.897Z,45.40
2019-03-23T07:13:01.098Z,42.83
2019-03-23T07:15:28.286Z,46.23
2019-03-23T07:17:55.514Z,41.70
2019-03-23T07:20:22.807Z,46.97
2019-03-23T07:22:50.110Z,45.53
2019-03-23T07:25:17.418Z,46.50
2019-03-23T07:27:44.746Z,44.80
2019-03-23T07:30:12.921Z,36.83
2019-03-23T07:32:40.207Z,41.30
2019-03-23T07:35:07.771Z,48.70
2019-03-23T07:37:34.971Z,44.90
2019-03-23T07:40:02.392Z,42.50
2019-03-23T07:42:29.579Z,42.97
2019-03-23T07:44:58.290Z,43.30
2019-03-23T07:47:25.577Z,38.37
2019-03-23T07:49:52.767Z,41.03
2019-03-23T07:52:19.969Z,40.53
2019-03-23T07:54:47.171Z,48.43
2019-03-23T07:57:14.590Z,35.90
2019-03-23T07:59:41.980Z,39.03
2019-03-23T08:02:09.155Z,41.60
2019-03-23T08:04:36.370Z,46.30
2019-03-23T08:07:03.863Z,31.93
2019-03-23T08:09:37.674Z,44.17
2019-03-23T08:12:00.313Z,38.30
2019-03-23T08:14:27.544Z,39.50
2019-03-23T08:16:55.122Z,40.70
2019-03-23T08:19:22.314Z,40.07
2019-03-23T08:21:49.498Z,42.97
2019-03-23T08:24:17.025Z,42.43
2019-03-23T08:26:44.310Z,39.93
2019-03-23T08:29:11.904Z,37.30
2019-03-23T08:31:39.241Z,43.97
2019-03-23T08:34:06.613Z,40.37
2019-03-23T08:36:33.826Z,40.40
2019-03-23T08:39:01.204Z,29.50
2019-03-23T08:41:30.655Z,25.97
2019-03-23T08:43:57.859Z,34.57
2019-03-23T08:46:25.214Z,35.07
2019-03-23T08:48:52.418Z,33.90
2019-03-23T08:51:19.830Z,45.80
2019-03-23T08:53:47.398Z,42.97
2019-03-23T08:56:14.732Z,32.57
2019-03-23T08:58:41.089Z,44.40
2019-03-23T09:01:08.409Z,40.47
2019-03-23T09:03:36.086Z,45.57
2019-03-23T09:06:03.418Z,39.27
2019-03-23T09:08:30.584Z,37.17
2019-03-23T09:10:57.823Z,37.57
2019-03-23T09:13:25.226Z,29.10
2019-03-23T09:15:52.749Z,44.00
2019-03-23T09:18:20.316Z,40.53
2019-03-23T09:20:47.520Z,35.93
2019-03-23T09:23:15.170Z,37.77
2019-03-23T09:25:45.583Z,30.37
2019-03-23T09:28:14.074Z,38.93
2019-03-23T09:30:41.396Z,34.40
2019-03-23T09:33:08.732Z,31.03
2019-03-23T09:35:39.493Z,37.83
2019-03-23T09:38:05.419Z,40.40
2019-03-23T09:40:32.922Z,37.40
2019-03-23T09:43:00.213Z,22.93
2019-03-23T09:45:27.942Z,28.07
2019-03-23T09:47:55.261Z,30.73
2019-03-23T09:50:22.468Z,37.40
2019-03-23T09:52:50.029Z,43.13
2019-03-23T09:55:17.243Z,42.97
2019-03-23T09:57:45.444Z,42.13
2019-03-23T10:00:41.248Z,42.63
2019-03-23T10:03:08.785Z,39.87
2019-03-23T10:05:36.030Z,37.00
2019-03-23T10:08:03.235Z,37.40
2019-03-23T10:10:30.442Z,38.37
2019-03-23T10:12:57.786Z,44.50
2019-03-23T10:15:25.116Z,28.77
2019-03-23T10:17:52.322Z,35.10
2019-03-23T10:20:19.570Z,43.67
2019-03-23T10:22:46.777Z,44.90
2019-03-23T10:25:14.187Z,43.30
2019-03-23T10:27:41.670Z,52.43
2019-03-23T10:30:09.109Z,42.93
2019-03-23T10:32:36.517Z,45.97
2019-03-23T10:35:06.246Z,55.97
2019-03-23T10:37:33.563Z,36.17
2019-03-23T10:40:00.785Z,48.70
2019-03-23T10:42:28.005Z,40.00
2019-03-23T10:44:55.222Z,40.60
2019-03-23T10:47:22.564Z,46.87
2019-03-23T10:49:49.762Z,39.80
2019-03-23T10:52:16.958Z,62.63
2019-03-23T10:54:44.186Z,42.23
2019-03-23T10:57:11.508Z,42.90
2019-03-23T10:59:38.817Z,40.73
2019-03-23T11:02:06.120Z,42.20
2019-03-23T11:04:33.437Z,44.53
2019-03-23T11:07:00.638Z,34.17
2019-03-23T11:09:28.946Z,54.27
2019-03-23T11:11:56.178Z,44.50
2019-03-23T11:14:23.478Z,45.17
2019-03-23T11:16:50.745Z,39.63
2019-03-23T11:19:17.969Z,42.20
2019-03-23T11:21:45.170Z,35.23
2019-03-23T11:24:12.475Z,42.10
2019-03-23T11:26:39.781Z,42.47
2019-03-23T11:29:08.415Z,47.73
2019-03-23T11:31:35.803Z,38.90
2019-03-23T11:34:03.292Z,40.50
2019-03-23T11:36:30.514Z,39.50
2019-03-23T11:38:57.839Z,36.47
2019-03-23T11:41:25.052Z,38.00
2019-03-23T11:43:52.267Z,41.03
2019-03-23T11:46:19.481Z,42.20
2019-03-23T11:48:47.496Z,41.97
2019-03-23T11:51:14.718Z,41.07
2019-03-23T11:53:41.945Z,43.57
2019-03-23T11:56:09.174Z,44.57
2019-03-23T11:58:36.383Z,43.13
2019-03-23T12:01:03.641Z,41.50
2019-03-23T12:03:30.858Z,39.33
2019-03-23T12:05:58.062Z,41.00
2019-03-23T12:08:25.276Z,40.43
2019-03-23T12:11:02.510Z,33.50
2019-03-23T12:13:21.906Z,39.87
2019-03-23T12:15:49.138Z,40.47
2019-03-23T12:18:16.387Z,39.70
2019-03-23T12:20:43.722Z,39.43
2019-03-23T12:23:10.927Z,36.47
2019-03-23T12:25:38.259Z,42.20
2019-03-23T12:28:05.479Z,39.90
2019-03-23T12:30:32.801Z,37.93
2019-03-23T12:33:00.186Z,38.10
2019-03-23T12:35:27.510Z,36.27
2019-03-23T12:37:54.937Z,31.17
2019-03-23T12:40:22.150Z,36.20
2019-03-23T12:42:49.622Z,29.70
2019-03-23T12:45:17.043Z,33.63
2019-03-23T12:47:44.263Z,31.70
2019-03-23T12:50:12.304Z,33.80
2019-03-23T12:52:39.622Z,25.57
2019-03-23T12:55:06.970Z,29.70
2019-03-23T12:57:35.420Z,39.63
2019-03-23T13:00:03.520Z,29.13
2019-03-23T13:02:30.750Z,34.80
2019-03-23T13:04:57.991Z,30.57
2019-03-23T13:07:25.256Z,25.90
2019-03-23T13:09:52.488Z,27.10
2019-03-23T13:12:19.716Z,20.20
2019-03-23T13:14:46.948Z,21.97
2019-03-23T13:17:14.270Z,20.27
2019-03-23T13:19:41.634Z,22.47
2019-03-23T13:22:08.841Z,17.00
2019-03-23T13:24:37.123Z,16.23
2019-03-23T13:27:04.459Z,16.43
2019-03-23T13:29:31.673Z,16.90
2019-03-23T13:31:58.898Z,15.40
2019-03-23T13:34:26.161Z,11.87
2019-03-23T13:36:53.374Z,12.43
2019-03-23T13:39:20.726Z,12.80
2019-03-23T13:41:49.010Z,9.93
2019-03-23T13:44:17.794Z,15.10
2019-03-23T13:46:45.115Z,7.07
2019-03-23T13:49:12.745Z,6.57
2019-03-23T13:51:40.918Z,4.80
2019-03-23T13:54:08.207Z,3.93
2019-03-23T13:56:35.443Z,30.87
2019-03-23T13:59:02.919Z,5.73
2019-03-23T14:01:30.281Z,5.07
2019-03-23T14:03:57.482Z,3.80
2019-03-23T14:06:24.717Z,3.03
2019-03-23T14:08:52.272Z,3.00
2019-03-23T14:11:19.604Z,2.20
2019-03-23T14:13:46.906Z,3.50
2019-03-23T14:16:14.386Z,3.23
2019-03-23T14:18:41.685Z,2.60
2019-03-23T14:21:08.911Z,3.23
2019-03-23T14:23:36.128Z,4.20
2019-03-23T14:26:03.591Z,6.57
2019-03-23T14:28:30.978Z,2.97
2019-03-23T14:30:58.512Z,3.37
2019-03-23T14:33:25.761Z,3.70
2019-03-23T14:35:53.021Z,4.87
2019-03-23T14:38:20.312Z,10.70
2019-03-23T14:40:47.540Z,3.47
2019-03-23T14:43:14.765Z,10.87
2019-03-23T14:45:42.014Z,2.80
2019-03-23T14:48:09.216Z,13.87
2019-03-23T14:50:36.526Z,11.20
2019-03-23T14:53:03.869Z,5.47
2019-03-23T14:55:31.078Z,11.80
2019-03-23T14:57:58.321Z,6.70
2019-03-23T15:00:29.948Z,4.77
2019-03-23T15:02:57.180Z,5.30
2019-03-23T15:05:24.380Z,2.57
2019-03-23T15:07:51.707Z,3.53
2019-03-23T15:10:18.955Z,3.77
2019-03-23T15:12:46.275Z,2.70
2019-03-23T15:15:13.654Z,4.97
2019-03-23T15:17:48.383Z,2.87
2019-03-23T15:20:10.322Z,2.37
2019-03-23T15:22:45.220Z,2.90
2019-03-23T15:25:12.543Z,5.80
2019-03-23T15:27:39.776Z,9.43
2019-03-23T15:30:07.655Z,8.63
2019-03-23T15:32:34.999Z,3.90
2019-03-23T15:35:02.418Z,6.20
2019-03-23T15:37:29.768Z,6.73
2019-03-23T15:39:56.960Z,2.43
2019-03-23T15:42:24.908Z,6.93
2019-03-23T15:44:52.465Z,4.83
2019-03-23T15:47:19.712Z,4.40
2019-03-23T15:49:46.884Z,3.40
2019-03-23T15:52:14.820Z,5.27
2019-03-23T15:54:42.030Z,2.40
2019-03-23T20:43:30.577Z,4.10
2019-03-23T20:45:58.225Z,5.10
2019-03-23T20:48:25.837Z,6.37
2019-03-23T20:50:53.578Z,6.00
2019-03-23T20:53:20.962Z,43.67
2019-03-23T20:55:48.154Z,25.13
2019-03-23T20:58:16.035Z,6.63
2019-03-23T21:00:43.272Z,6.27
2019-03-23T21:03:10.810Z,5.60
2019-03-23T21:05:38.106Z,6.57
2019-03-23T21:08:05.395Z,5.97
2019-03-23T21:10:32.714Z,4.57
2019-03-23T21:13:00.224Z,5.40
2019-03-23T21:15:27.512Z,4.60
2019-03-23T21:17:55.166Z,5.17
2019-03-23T21:20:22.824Z,5.63
2019-03-23T21:22:50.462Z,5.40
2019-03-23T21:25:17.750Z,5.47
2019-03-23T21:27:45.103Z,4.77
2019-03-23T21:30:13.349Z,6.10
2019-03-23T21:32:40.637Z,5.70
2019-03-23T21:35:08.077Z,6.00
2019-03-23T21:37:35.659Z,4.95
2019-03-23T21:40:03.228Z,6.67
2019-03-23T21:42:30.450Z,7.70
2019-03-23T21:44:57.762Z,5.60
2019-03-23T21:47:25.102Z,5.20
2019-03-23T21:49:52.398Z,4.47
2019-03-23T21:52:19.610Z,5.80
2019-03-23T21:54:46.910Z,5.08
2019-03-23T21:57:14.145Z,5.33
2019-03-23T21:59:41.370Z,5.97
2019-03-23T22:02:08.889Z,5.15
2019-03-23T22:04:36.230Z,5.75
2019-03-23T22:07:03.791Z,5.60
2019-03-23T22:09:31.172Z,5.15
2019-03-23T22:11:58.629Z,5.70
2019-03-23T22:14:25.930Z,4.60
2019-03-23T22:16:53.421Z,5.97
2019-03-23T22:19:20.605Z,6.13
2019-03-23T22:21:47.815Z,4.80
2019-03-23T22:24:15.058Z,5.40
2019-03-23T22:26:42.282Z,5.73
2019-03-23T22:29:09.486Z,5.67
2019-03-23T22:31:36.754Z,5.83
2019-03-23T22:34:04.082Z,6.80
2019-03-23T22:36:31.289Z,5.90
2019-03-23T22:38:58.591Z,6.35
2019-03-23T22:41:26.925Z,8.50
2019-03-23T22:43:54.235Z,5.67
2019-03-23T22:46:21.470Z,6.33
2019-03-23T22:48:48.690Z,7.20
2019-03-23T22:51:15.921Z,6.80
2019-03-23T22:53:43.151Z,6.70
2019-03-23T22:56:10.385Z,6.80
2019-03-23T22:58:37.681Z,7.37
2019-03-23T23:01:05.198Z,7.17
2019-03-23T23:03:32.534Z,7.05
2019-03-23T23:05:59.783Z,7.80
2019-03-23T23:08:27.018Z,7.55
2019-03-23T23:10:54.546Z,7.90
2019-03-23T23:13:22.207Z,7.50
2019-03-23T23:15:49.422Z,7.70
2019-03-23T23:18:17.010Z,7.47
2019-03-23T23:20:44.567Z,8.93
2019-03-23T23:23:11.960Z,10.00
2019-03-23T23:25:39.366Z,9.63
2019-03-23T23:28:06.707Z,12.13
2019-03-23T23:30:34.463Z,11.00
2019-03-23T23:33:01.664Z,10.63
2019-03-23T23:35:29.145Z,10.27
2019-03-23T23:37:57.537Z,10.47
2019-03-23T23:40:24.998Z,8.07
2019-03-23T23:42:52.271Z,6.87
2019-03-23T23:45:20.074Z,7.83
2019-03-23T23:47:47.451Z,6.62
2019-03-23T23:50:14.929Z,6.45
2019-03-23T23:52:42.341Z,6.92
2019-03-23T23:55:09.831Z,7.00
2019-03-23T23:57:37.251Z,6.95
